Time;durP1;ratioP1;P1;durP2;ratioP2;P2;SDS_P1;SDS_P2;PMS_P1;PMS_P2;Temp;Humidity;BMP_temperature;BMP_pressure;BME280_temperature;BME280_humidity;BME280_pressure;Samples;Min_cycle;Max_cycle;Signal;HPM_P1;HPM_P2
2023/09/25 07:34:42;;;;;;;6.45;2.58;;;20.80;63.20;;;;;;5129022;27;20386;-50
2023/09/25 07:37:08;;;;;;;5.28;2.65;;;21.00;63.30;;;;;;5109338;28;20027;-49
2023/09/25 07:39:40;;;;;;;6.72;2.50;;;21.10;63.30;;;;;;5109352;28;20453;-52
2023/09/25 07:42:12;;;;;;;5.45;2.33;;;21.10;63.20;;;;;;5108025;28;20020;-53
2023/09/25 07:44:38;;;;;;;4.75;2.60;;;21.10;63.10;;;;;;5108840;28;20032;-53
2023/09/25 07:47:06;;;;;;;5.38;2.78;;;21.10;63.40;;;;;;5109188;28;20030;-54
2023/09/25 07:49:38;;;;;;;4.18;2.55;;;21.10;63.30;;;;;;5108926;28;20432;-51
2023/09/25 07:52:14;;;;;;;4.65;2.63;;;21.10;63.50;;;;;;5109040;28;20077;-51
2023/09/25 07:54:44;;;;;;;4.90;2.45;;;21.10;63.50;;;;;;5108660;28;20028;-54
2023/09/25 07:57:15;;;;;;;4.80;2.33;;;21.10;63.20;;;;;;5108859;28;20024;-54
2023/09/25 07:59:44;;;;;;;3.20;2.42;;;21.10;63.50;;;;;;5108701;28;20143;-52
2023/09/25 08:02:12;;;;;;;5.28;2.85;;;21.20;63.60;;;;;;5106088;28;20039;-54
2023/09/25 08:04:38;;;;;;;13.40;3.85;;;21.20;63.40;;;;;;5085929;28;20031;-55
2023/09/25 08:07:03;;;;;;;14.07;4.45;;;21.10;63.20;;;;;;5094216;28;20483;-52
2023/09/25 08:09:31;;;;;;;19.15;4.70;;;21.10;62.50;;;;;;5097294;28;20035;-54
2023/09/25 08:11:56;;;;;;;19.83;4.97;;;21.10;62.80;;;;;;5094408;28;20047;-54
2023/09/25 08:14:23;;;;;;;13.63;5.25;;;21.00;62.60;;;;;;5095718;28;20471;-55
2023/09/25 08:16:49;;;;;;;10.13;4.45;;;21.00;62.60;;;;;;5095651;28;20023;-54
2023/09/25 08:19:17;;;;;;;12.38;5.25;;;21.00;63.20;;;;;;5094173;28;20038;-54
2023/09/25 08:21:44;;;;;;;11.23;4.65;;;21.00;62.30;;;;;;5096387;28;20410;-53
2023/09/25 08:24:10;;;;;;;8.05;4.38;;;21.10;61.60;;;;;;5092341;28;20032;-54
2023/09/25 08:26:36;;;;;;;8.40;4.07;;;21.10;62.10;;;;;;5097188;28;20391;-52
2023/09/25 08:29:05;;;;;;;7.70;4.35;;;21.10;62.30;;;;;;5091809;28;20020;-54
2023/09/25 08:31:32;;;;;;;10.77;4.60;;;21.10;61.90;;;;;;5097412;28;20273;-51
2023/09/25 08:33:58;;;;;;;10.27;3.97;;;21.20;62.10;;;;;;5086765;28;20274;-50
2023/09/25 08:36:24;;;;;;;9.73;5.03;;;21.10;62.40;;;;;;5083846;28;20035;-53
2023/09/25 08:38:50;;;;;;;8.63;4.57;;;21.20;61.60;;;;;;5077708;28;20558;-53
2023/09/25 08:41:19;;;;;;;12.73;4.75;;;21.20;61.70;;;;;;5083633;28;20035;-54
2023/09/25 08:43:45;;;;;;;10.85;4.40;;;21.20;61.40;;;;;;5077280;28;20032;-56
2023/09/25 08:46:12;;;;;;;8.10;4.32;;;21.30;61.50;;;;;;5082589;28;20036;-56
2023/09/25 08:48:38;;;;;;;9.18;4.63;;;21.30;61.50;;;;;;5077233;28;20024;-52
2023/09/25 08:51:05;;;;;;;7.07;4.43;;;21.30;61.20;;;;;;5083669;28;20065;-54
2023/09/25 08:53:31;;;;;;;6.90;4.45;;;21.30;61.40;;;;;;5085174;28;20036;-54
2023/09/25 08:55:56;;;;;;;7.18;3.90;;;21.30;61.60;;;;;;5085564;28;20020;-55
2023/09/25 08:58:24;;;;;;;11.30;4.30;;;21.30;61.70;;;;;;5093612;28;20073;-54
2023/09/25 09:00:51;;;;;;;7.63;3.90;;;21.30;61.50;;;;;;5094007;28;20031;-51
2023/09/25 09:03:17;;;;;;;10.20;3.95;;;21.40;61.40;;;;;;5093490;28;20028;-50
2023/09/25 09:05:43;;;;;;;9.23;4.15;;;21.40;61.10;;;;;;5094158;28;20031;-55
2023/09/25 09:08:09;;;;;;;9.45;4.07;;;21.40;60.80;;;;;;5093988;28;20091;-54
2023/09/25 09:10:39;;;;;;;14.57;4.10;;;21.40;60.90;;;;;;5093847;28;20021;-56
2023/09/25 09:13:11;;;;;;;14.38;4.45;;;21.40;61.00;;;;;;5093377;28;20028;-55
2023/09/25 09:15:39;;;;;;;10.60;3.90;;;21.30;60.50;;;;;;5093806;28;20494;-55
2023/09/25 09:18:25;;;;;;;7.95;3.92;;;21.40;60.80;;;;;;5093741;28;20028;-54
2023/09/25 09:20:51;;;;;;;14.93;3.58;;;21.30;60.90;;;;;;5092424;28;20039;-55
2023/09/25 09:23:17;;;;;;;11.68;3.72;;;21.30;60.80;;;;;;5093155;28;20052;-55
2023/09/25 09:25:47;;;;;;;7.95;3.47;;;21.40;60.70;;;;;;5093701;28;20410;-51
2023/09/25 09:28:13;;;;;;;8.05;3.40;;;21.40;61.10;;;;;;5093746;28;20103;-55
2023/09/25 09:30:41;;;;;;;7.35;3.42;;;21.30;61.20;;;;;;5093555;28;20028;-54
2023/09/25 09:33:10;;;;;;;12.38;3.40;;;21.30;61.20;;;;;;5093099;28;20414;-52
2023/09/25 09:35:37;;;;;;;8.52;3.75;;;21.20;61.40;;;;;;5093371;28;20398;-54
2023/09/25 09:38:04;;;;;;;7.68;3.53;;;21.20;61.30;;;;;;5093578;28;20447;-55
2023/09/25 09:40:30;;;;;;;7.13;3.72;;;21.20;61.50;;;;;;5093330;28;20028;-55
2023/09/25 09:42:56;;;;;;;6.60;3.05;;;21.20;60.60;;;;;;5092889;28;20031;-54
2023/09/25 09:45:22;;;;;;;10.13;3.35;;;21.20;61.10;;;;;;5092545;28;20028;-56
2023/09/25 09:47:50;;;;;;;6.65;3.00;;;21.20;61.10;;;;;;5092883;28;20020;-55
2023/09/25 09:50:26;;;;;;;8.90;4.50;;;21.10;61.00;;;;;;5093088;28;20024;-55
2023/09/25 09:52:53;;;;;;;9.48;3.78;;;21.10;60.20;;;;;;5093099;28;20114;-53
2023/09/25 09:55:21;;;;;;;6.97;3.90;;;21.10;60.30;;;;;;5093081;28;20031;-55
2023/09/25 09:57:48;;;;;;;7.78;4.03;;;21.10;60.40;;;;;;5092992;28;20410;-52
2023/09/25 10:00:15;;;;;;;8.55;4.30;;;21.10;60.60;;;;;;5092930;28;20316;-55
2023/09/25 10:02:42;;;;;;;5.72;3.30;;;21.10;59.30;;;;;;5091345;28;20028;-55
2023/09/25 10:05:10;;;;;;;8.25;4.13;;;21.20;60.40;;;;;;5092533;28;20026;-55
2023/09/25 10:08:11;;;;;;;8.03;4.10;;;21.20;60.00;;;;;;5092836;28;20039;-55
2023/09/25 10:10:48;;;;;;;7.57;3.60;;;21.20;60.00;;;;;;5092618;28;20020;-55
2023/09/25 10:13:21;;;;;;;5.95;3.45;;;21.20;60.00;;;;;;5092387;28;20031;-52
2023/09/25 10:16:01;;;;;;;7.32;3.80;;;21.20;59.60;;;;;;5092827;28;20031;-56
2023/09/25 10:18:30;;;;;;;10.57;4.18;;;21.20;59.50;;;;;;5092840;28;20099;-55
2023/09/25 10:21:09;;;;;;;10.68;4.55;;;21.30;59.50;;;;;;5058004;28;20028;-53
2023/09/25 10:23:39;;;;;;;7.95;4.05;;;21.30;59.40;;;;;;5092182;28;20096;-50
2023/09/25 10:26:20;;;;;;;11.73;4.72;;;21.30;59.50;;;;;;5092581;28;20447;-55
2023/09/25 10:29:15;;;;;;;12.73;4.10;;;21.30;59.50;;;;;;5092619;28;20089;-50
2023/09/25 10:31:47;;;;;;;9.43;4.50;;;21.30;59.50;;;;;;5092674;28;20450;-55
2023/09/25 10:34:12;;;;;;;10.82;6.50;;;21.30;59.60;;;;;;5091880;28;20031;-55
2023/09/25 10:36:41;;;;;;;9.27;5.45;;;21.30;58.80;;;;;;5092301;28;20391;-51
2023/09/25 10:39:08;;;;;;;10.77;5.43;;;21.30;59.70;;;;;;5092311;28;20554;-54
2023/09/25 10:41:35;;;;;;;10.77;5.35;;;21.30;59.80;;;;;;5074263;28;20043;-54
2023/09/25 10:44:01;;;;;;;8.85;5.00;;;21.30;59.90;;;;;;5091855;28;20020;-53
2023/09/25 10:46:27;;;;;;;11.40;5.43;;;21.20;59.70;;;;;;5092152;28;20048;-55
2023/09/25 10:48:57;;;;;;;9.82;4.38;;;21.20;60.10;;;;;;5092065;28;20063;-53
2023/09/25 10:51:23;;;;;;;8.70;4.78;;;21.20;60.20;;;;;;5092094;28;20047;-52
2023/09/25 10:53:49;;;;;;;10.88;4.53;;;21.20;59.90;;;;;;5091952;28;20108;-56
2023/09/25 10:56:16;;;;;;;8.20;4.53;;;21.20;60.30;;;;;;5091883;28;20028;-55
2023/09/25 10:58:47;;;;;;;7.38;4.35;;;21.20;59.30;;;;;;5091649;28;20503;-55
2023/09/25 11:01:14;;;;;;;7.57;4.00;;;21.20;60.30;;;;;;5091988;28;20031;-54
2023/09/25 11:03:41;;;;;;;8.63;4.00;;;21.20;60.10;;;;;;5091346;28;20024;-55
2023/09/25 11:06:10;;;;;;;7.03;4.18;;;21.20;59.60;;;;;;5090805;28;20032;-52
2023/09/25 11:08:35;;;;;;;8.35;4.45;;;21.20;59.90;;;;;;5091804;28;20043;-56
2023/09/25 11:11:02;;;;;;;9.05;4.68;;;21.30;59.70;;;;;;5091798;28;20055;-55
2023/09/25 11:13:28;;;;;;;9.32;4.80;;;21.20;58.60;;;;;;5091409;28;20039;-55
2023/09/25 11:15:56;;;;;;;9.20;4.35;;;21.30;58.80;;;;;;5091741;28;20035;-55
2023/09/25 11:18:21;;;;;;;6.47;4.28;;;21.30;58.60;;;;;;5091566;28;20483;-55
2023/09/25 11:20:48;;;;;;;9.82;4.00;;;21.30;58.30;;;;;;5091668;28;20038;-55
2023/09/25 11:23:16;;;;;;;12.50;4.43;;;21.30;58.10;;;;;;5091268;28;20036;-54
2023/09/25 11:25:47;;;;;;;7.88;3.78;;;21.30;58.40;;;;;;5091506;28;20027;-56
2023/09/25 11:28:14;;;;;;;9.25;4.20;;;21.30;57.90;;;;;;5091548;28;20089;-55
2023/09/25 11:30:41;;;;;;;5.70;3.42;;;21.30;58.10;;;;;;5091531;28;20025;-55
2023/09/25 11:33:09;;;;;;;6.22;3.85;;;21.30;58.60;;;;;;5090998;28;20093;-55
2023/09/25 11:35:39;;;;;;;8.60;4.15;;;21.30;58.30;;;;;;5091580;28;20039;-56
2023/09/25 11:38:21;;;;;;;8.93;3.70;;;21.30;58.20;;;;;;5091515;28;20063;-55
2023/09/25 11:40:50;;;;;;;10.80;4.65;;;21.30;57.80;;;;;;5091416;28;20103;-55
2023/09/25 11:43:16;;;;;;;10.23;5.03;;;21.30;57.60;;;;;;5091018;28;20376;-55
2023/09/25 11:45:42;;;;;;;8.65;4.40;;;21.30;57.80;;;;;;5091831;28;20039;-56
2023/09/25 11:48:09;;;;;;;7.65;4.10;;;21.30;57.50;;;;;;5091444;28;20030;-54
2023/09/25 11:50:35;;;;;;;10.65;4.85;;;21.30;57.80;;;;;;5091406;28;20479;-51
2023/09/25 11:53:01;;;;;;;9.48;4.53;;;21.30;58.00;;;;;;5090998;28;20036;-54
2023/09/25 11:55:28;;;;;;;7.00;3.65;;;21.30;58.00;;;;;;5091275;28;20039;-55
2023/09/25 11:57:54;;;;;;;12.70;4.50;;;21.30;58.00;;;;;;5091614;28;20417;-55
2023/09/25 12:00:22;;;;;;;8.05;3.95;;;21.30;58.50;;;;;;5091251;28;20368;-55
2023/09/25 12:02:49;;;;;;;8.48;4.00;;;21.30;58.50;;;;;;5090748;28;20028;-54
2023/09/25 12:05:16;;;;;;;9.20;3.97;;;21.30;58.60;;;;;;5091242;28;20073;-55
2023/09/25 12:07:43;;;;;;;9.38;4.07;;;21.30;58.70;;;;;;5091358;28;20020;-55
2023/09/25 12:10:16;;;;;;;7.75;4.25;;;21.30;59.00;;;;;;5093354;28;20024;-51
2023/09/25 12:12:44;;;;;;;8.65;4.03;;;21.30;58.90;;;;;;5094869;28;20101;-55
2023/09/25 12:15:12;;;;;;;11.00;4.43;;;21.30;59.20;;;;;;5094877;28;20022;-54
2023/09/25 12:17:38;;;;;;;8.05;4.00;;;21.30;58.30;;;;;;5094846;28;20028;-55
2023/09/25 12:20:14;;;;;;;9.32;3.70;;;21.30;59.10;;;;;;5094806;28;20556;-51
2023/09/25 12:22:41;;;;;;;6.75;3.88;;;21.30;59.30;;;;;;5094762;28;20054;-53
2023/09/25 12:25:14;;;;;;;6.70;4.07;;;21.30;59.10;;;;;;5094559;28;20028;-55
2023/09/25 12:27:42;;;;;;;5.95;3.63;;;21.20;59.40;;;;;;5094774;28;20023;-55
2023/09/25 12:30:10;;;;;;;7.80;3.78;;;21.20;59.40;;;;;;5094756;28;20056;-55
2023/09/25 12:32:39;;;;;;;8.60;3.60;;;21.20;59.50;;;;;;5094486;28;20028;-56
2023/09/25 12:35:06;;;;;;;10.35;4.57;;;21.20;59.20;;;;;;5094511;28;20479;-56
2023/09/25 12:37:33;;;;;;;7.97;3.92;;;21.20;59.00;;;;;;5094412;28;20115;-54
2023/09/25 12:39:59;;;;;;;7.05;3.70;;;21.20;58.80;;;;;;5094450;28;20415;-55
2023/09/25 12:42:25;;;;;;;7.88;3.78;;;21.20;58.30;;;;;;5094239;28;20024;-55
2023/09/25 12:44:51;;;;;;;8.15;3.72;;;21.20;58.20;;;;;;5094003;28;20482;-56
2023/09/25 12:47:18;;;;;;;10.00;3.60;;;21.30;58.40;;;;;;5094351;28;20035;-55
2023/09/25 12:49:44;;;;;;;9.23;3.60;;;21.30;59.00;;;;;;5093267;28;20394;-55
2023/09/25 12:52:11;;;;;;;5.32;3.38;;;21.30;58.40;;;;;;5094463;28;20048;-56
2023/09/25 12:54:37;;;;;;;9.45;3.97;;;21.30;58.80;;;;;;5093954;28;20028;-53
2023/09/25 12:57:03;;;;;;;11.15;4.18;;;21.40;59.50;;;;;;5094180;28;20032;-53
2023/09/25 12:59:29;;;;;;;8.40;4.03;;;21.40;60.00;;;;;;5094252;28;20024;-55
2023/09/25 13:01:55;;;;;;;11.95;4.05;;;21.50;62.50;;;;;;5094166;28;20027;-55
2023/09/25 13:04:21;;;;;;;16.77;5.13;;;21.50;62.00;;;;;;5093737;28;20514;-51
2023/09/25 13:06:50;;;;;;;10.30;4.82;;;21.60;63.80;;;;;;5094079;28;20339;-52
2023/09/25 13:09:17;;;;;;;13.15;5.10;;;21.60;63.50;;;;;;5075755;28;20479;-54
2023/09/25 13:11:44;;;;;;;10.75;5.32;;;21.60;63.60;;;;;;5093953;28;20552;-56
2023/09/25 13:14:10;;;;;;;12.00;5.00;;;21.60;60.30;;;;;;5093851;28;20039;-53
2023/09/25 13:16:36;;;;;;;9.65;5.30;;;21.60;62.40;;;;;;5093773;28;20032;-53
2023/09/25 13:19:02;;;;;;;10.63;5.07;;;21.50;63.30;;;;;;5093814;28;20024;-51
2023/09/25 13:21:28;;;;;;;13.13;4.90;;;21.60;62.50;;;;;;5093664;28;20108;-52
2023/09/25 13:23:56;;;;;;;11.38;4.88;;;21.50;62.60;;;;;;5093185;28;20096;-57
2023/09/25 13:26:24;;;;;;;11.80;4.38;;;21.60;62.40;;;;;;5093539;28;20024;-52
2023/09/25 13:28:52;;;;;;;15.23;4.35;;;21.60;61.30;;;;;;5093564;28;20032;-57
2023/09/25 13:31:18;;;;;;;9.63;4.25;;;21.50;60.80;;;;;;5093421;28;20024;-56
2023/09/25 13:33:44;;;;;;;14.30;4.32;;;21.50;61.10;;;;;;5093164;28;20086;-58
2023/09/25 13:36:10;;;;;;;11.70;3.80;;;21.50;61.20;;;;;;5093417;28;20434;-52
2023/09/25 13:38:36;;;;;;;12.52;4.13;;;21.50;61.60;;;;;;5075663;28;20027;-54
2023/09/25 13:41:04;;;;;;;17.08;3.78;;;21.50;61.60;;;;;;5093302;28;20082;-53
2023/09/25 13:43:30;;;;;;;11.45;3.40;;;21.50;60.90;;;;;;5092974;28;20457;-53
2023/09/25 13:45:56;;;;;;;12.80;3.50;;;21.50;61.40;;;;;;5093081;28;20455;-56
2023/09/25 13:48:22;;;;;;;15.48;3.58;;;21.50;61.50;;;;;;5093106;28;20059;-55
2023/09/25 13:50:47;;;;;;;13.15;3.33;;;21.40;61.30;;;;;;5093070;28;20024;-53
2023/09/25 13:53:13;;;;;;;15.50;3.35;;;21.40;61.50;;;;;;5092626;28;20032;-54
2023/09/25 13:55:40;;;;;;;11.82;3.80;;;21.40;61.40;;;;;;5091844;28;20031;-58
2023/09/25 13:58:06;;;;;;;11.88;3.60;;;21.40;62.50;;;;;;5091717;28;20487;-53
2023/09/25 14:00:34;;;;;;;19.17;4.18;;;21.40;63.00;;;;;;5092845;28;20049;-56
2023/09/25 14:03:00;;;;;;;10.90;3.33;;;21.40;63.20;;;;;;5092374;28;20373;-58
2023/09/25 14:05:26;;;;;;;13.10;3.58;;;21.40;63.00;;;;;;5092747;28;20039;-55
2023/09/25 14:07:52;;;;;;;14.13;3.70;;;21.40;63.30;;;;;;5091527;28;20530;-54
2023/09/25 14:10:18;;;;;;;10.07;3.45;;;21.40;62.90;;;;;;5092481;28;20028;-56
2023/09/25 14:12:45;;;;;;;9.00;3.17;;;21.40;62.90;;;;;;5092307;28;20024;-54
2023/09/25 14:15:12;;;;;;;13.00;2.92;;;21.40;61.10;;;;;;5092495;28;20608;-59
2023/09/25 14:17:41;;;;;;;17.05;3.35;;;21.40;61.00;;;;;;5092759;28;20024;-58
2023/09/25 14:20:10;;;;;;;11.73;3.00;;;21.40;60.70;;;;;;5092991;28;20407;-58
2023/09/25 14:22:38;;;;;;;6.95;2.80;;;21.40;60.60;;;;;;5092650;28;20141;-55
2023/09/25 14:25:06;;;;;;;20.60;3.75;;;21.40;61.00;;;;;;5092546;28;20036;-58
2023/09/25 14:27:34;;;;;;;13.27;3.35;;;21.40;61.00;;;;;;5092906;28;20052;-58
2023/09/25 14:30:00;;;;;;;12.93;3.08;;;21.40;60.60;;;;;;5092954;28;20390;-58
2023/09/25 14:32:26;;;;;;;10.85;3.42;;;21.50;60.80;;;;;;5091986;28;20522;-58
2023/09/25 14:34:52;;;;;;;13.90;3.72;;;21.50;60.30;;;;;;5092018;28;20056;-58
2023/09/25 14:37:18;;;;;;;13.63;3.92;;;21.50;60.40;;;;;;5092367;28;20395;-58
2023/09/25 14:39:44;;;;;;;9.80;3.17;;;21.50;59.50;;;;;;5092231;28;20090;-58
2023/09/25 14:42:10;;;;;;;8.15;2.83;;;21.50;59.80;;;;;;5091288;28;20513;-58
2023/09/25 14:44:35;;;;;;;8.02;3.05;;;21.40;61.00;;;;;;5091073;28;20016;-58
2023/09/25 14:47:01;;;;;;;5.95;3.15;;;21.40;60.80;;;;;;5091048;28;20026;-54
2023/09/25 14:49:27;;;;;;;7.07;3.03;;;21.40;61.10;;;;;;5090580;28;20022;-58
2023/09/25 14:51:53;;;;;;;5.75;2.70;;;21.40;61.50;;;;;;5090488;28;20030;-57
2023/09/25 14:54:19;;;;;;;13.32;3.22;;;21.40;61.60;;;;;;5090298;28;20028;-58
2023/09/25 14:56:46;;;;;;;8.85;3.40;;;21.40;61.60;;;;;;5090751;28;20059;-58
2023/09/25 14:59:12;;;;;;;8.65;3.08;;;21.40;61.50;;;;;;5091063;28;20032;-54
2023/09/25 15:01:38;;;;;;;9.60;3.53;;;21.40;61.40;;;;;;5091651;28;20380;-56
2023/09/25 15:04:04;;;;;;;7.30;3.20;;;21.40;61.40;;;;;;5091217;28;20032;-57
2023/09/25 15:06:30;;;;;;;6.93;3.13;;;21.40;61.10;;;;;;5091642;28;20498;-58
2023/09/25 15:08:56;;;;;;;6.82;3.00;;;21.40;61.40;;;;;;5090569;28;20060;-57
2023/09/25 15:11:22;;;;;;;8.52;3.28;;;21.40;61.20;;;;;;5091850;28;20028;-56
2023/09/25 15:13:48;;;;;;;6.95;3.08;;;21.40;61.10;;;;;;5090150;28;20028;-58
2023/09/25 15:16:14;;;;;;;8.23;3.38;;;21.40;61.50;;;;;;5090520;28;20099;-58
2023/09/25 15:18:40;;;;;;;7.50;3.00;;;21.40;61.10;;;;;;5091606;28;20024;-54
2023/09/25 15:21:07;;;;;;;5.35;2.75;;;21.40;61.20;;;;;;5091589;28;20035;-55
2023/09/25 15:23:36;;;;;;;5.75;3.15;;;21.40;60.90;;;;;;5090704;28;20103;-57
2023/09/25 15:26:03;;;;;;;5.20;2.80;;;21.40;61.00;;;;;;5091412;28;20024;-58
2023/09/25 15:28:30;;;;;;;6.13;3.08;;;21.30;61.00;;;;;;5091405;28;20020;-56
2023/09/25 15:30:55;;;;;;;5.80;3.05;;;21.40;61.10;;;;;;5090344;28;20024;-55
2023/09/25 15:33:21;;;;;;;5.90;2.88;;;21.40;61.50;;;;;;5091123;28;20495;-58
2023/09/25 15:35:48;;;;;;;4.57;2.90;;;21.30;61.20;;;;;;5091349;28;20027;-56
2023/09/25 15:38:15;;;;;;;7.55;2.97;;;21.30;61.20;;;;;;5091652;28;20032;-56
2023/09/25 15:40:44;;;;;;;5.00;2.80;;;21.30;61.20;;;;;;5091045;28;20060;-56
2023/09/25 15:43:10;;;;;;;4.33;2.67;;;21.30;61.50;;;;;;5091035;28;20394;-58
2023/09/25 15:45:36;;;;;;;9.30;2.95;;;21.30;61.40;;;;;;5094600;28;20262;-56
2023/09/25 15:48:03;;;;;;;6.65;2.75;;;21.30;61.70;;;;;;5095493;28;20039;-57
2023/09/25 15:50:29;;;;;;;5.13;2.88;;;21.30;61.50;;;;;;5095310;28;20051;-57
2023/09/25 15:52:55;;;;;;;6.25;2.88;;;21.30;61.10;;;;;;5095080;28;20676;-57
2023/09/25 15:55:21;;;;;;;4.70;2.80;;;21.30;61.10;;;;;;5095382;28;20074;-59
2023/09/25 15:57:47;;;;;;;5.43;3.10;;;21.30;60.70;;;;;;5095296;28;20124;-58
2023/09/25 16:00:14;;;;;;;9.30;2.83;;;21.30;60.70;;;;;;5095446;28;20032;-53
2023/09/25 16:02:40;;;;;;;12.32;2.97;;;21.30;60.20;;;;;;5095606;28;20503;-56
2023/09/25 16:05:06;;;;;;;11.02;2.63;;;21.30;60.40;;;;;;5095194;28;20024;-58
2023/09/25 16:07:33;;;;;;;8.20;2.55;;;21.30;60.50;;;;;;5093824;28;20069;-53
2023/09/25 16:09:58;;;;;;;16.27;3.53;;;21.30;59.90;;;;;;5095077;28;20391;-55
2023/09/25 16:12:28;;;;;;;16.17;3.83;;;21.30;60.50;;;;;;5094791;28;20024;-52
2023/09/25 16:14:55;;;;;;;12.10;3.00;;;21.30;60.40;;;;;;5093188;28;20028;-54
2023/09/25 16:17:21;;;;;;;11.80;3.50;;;21.30;60.70;;;;;;5093905;28;20077;-58
2023/09/25 16:19:47;;;;;;;11.02;3.10;;;21.30;61.30;;;;;;5094474;28;20032;-55
2023/09/25 16:22:13;;;;;;;12.77;3.33;;;21.30;61.10;;;;;;5094876;28;20027;-58
2023/09/25 16:24:39;;;;;;;11.23;3.38;;;21.30;61.30;;;;;;5094437;28;20024;-58
2023/09/25 16:27:05;;;;;;;10.30;3.60;;;21.30;61.40;;;;;;5094723;28;20518;-58
2023/09/25 16:29:31;;;;;;;9.45;3.17;;;21.30;62.60;;;;;;5094644;28;20028;-56
2023/09/25 16:31:56;;;;;;;12.07;3.03;;;21.30;62.30;;;;;;5094568;28;20481;-55
2023/09/25 16:34:23;;;;;;;12.65;3.40;;;21.30;62.50;;;;;;5094056;28;20040;-58
2023/09/25 16:36:48;;;;;;;10.73;3.38;;;21.30;61.90;;;;;;5094698;28;20028;-56
2023/09/25 16:39:14;;;;;;;14.02;3.58;;;21.30;62.40;;;;;;5094627;28;20073;-58
2023/09/25 16:41:40;;;;;;;11.50;3.92;;;21.30;62.70;;;;;;5094625;28;20032;-56
2023/09/25 16:44:06;;;;;;;8.98;3.83;;;21.30;62.80;;;;;;5094055;28;20039;-56
2023/09/25 16:46:32;;;;;;;7.82;3.85;;;21.20;62.60;;;;;;5094362;28;20024;-58
2023/09/25 16:48:58;;;;;;;9.80;4.30;;;21.30;61.50;;;;;;5094284;28;20035;-57
2023/09/25 16:51:24;;;;;;;8.23;3.97;;;21.30;62.30;;;;;;5094500;28;20031;-57
2023/09/25 16:53:49;;;;;;;9.85;4.60;;;21.30;61.80;;;;;;5092875;28;20089;-58
2023/09/25 16:56:19;;;;;;;13.30;4.55;;;21.30;61.00;;;;;;5093776;28;20028;-57
2023/09/25 16:58:45;;;;;;;11.02;4.45;;;21.30;61.70;;;;;;5094350;28;20035;-57
2023/09/25 17:01:11;;;;;;;15.43;4.32;;;21.20;62.00;;;;;;5094182;28;20020;-58
2023/09/25 17:03:37;;;;;;;13.48;4.25;;;21.30;61.90;;;;;;5093821;28;20480;-52
2023/09/25 17:06:03;;;;;;;16.75;4.70;;;21.30;61.60;;;;;;5094156;28;20051;-55
2023/09/25 17:08:29;;;;;;;16.23;4.63;;;21.30;61.60;;;;;;5093797;28;20019;-55
2023/09/25 17:10:55;;;;;;;13.68;4.70;;;21.30;61.40;;;;;;5093453;28;20502;-58
2023/09/25 17:13:21;;;;;;;16.25;4.78;;;21.30;61.40;;;;;;5093179;28;20736;-53
2023/09/25 17:15:47;;;;;;;12.10;4.13;;;21.30;61.20;;;;;;5093334;28;20085;-58
2023/09/25 17:18:15;;;;;;;13.02;4.40;;;21.30;61.20;;;;;;5093234;28;20487;-58
2023/09/25 17:20:41;;;;;;;17.63;4.40;;;21.30;61.10;;;;;;5093243;28;20111;-58
2023/09/25 17:23:07;;;;;;;9.50;4.30;;;21.30;61.00;;;;;;5092823;28;20440;-58
2023/09/25 17:25:33;;;;;;;12.43;4.72;;;21.30;61.00;;;;;;5093689;28;20024;-58
2023/09/25 17:28:05;;;;;;;11.32;4.05;;;21.30;61.00;;;;;;5093726;28;20016;-53
2023/09/25 17:30:33;;;;;;;10.25;4.15;;;21.30;61.10;;;;;;5093463;28;20032;-56
2023/09/25 17:33:03;;;;;;;10.88;4.10;;;21.30;61.20;;;;;;5093048;28;20039;-57
2023/09/25 17:35:30;;;;;;;10.07;4.07;;;21.30;61.20;;;;;;5093567;28;20051;-52
2023/09/25 17:38:00;;;;;;;9.65;3.90;;;21.30;61.20;;;;;;5093506;28;20024;-55
2023/09/25 17:40:26;;;;;;;;;;;21.30;61.20;;;;;;5093829;28;20035;-54
2023/09/25 17:42:52;;;;;;;11.85;3.63;;;21.30;61.30;;;;;;5092927;28;20267;-56
2023/09/25 17:45:21;;;;;;;9.23;4.25;;;21.30;61.30;;;;;;5093143;28;20020;-55
2023/09/25 17:47:50;;;;;;;12.55;3.58;;;21.30;61.40;;;;;;5092197;28;20095;-51
2023/09/25 17:50:16;;;;;;;11.52;3.95;;;21.30;61.40;;;;;;5093222;28;20044;-56
2023/09/25 17:52:46;;;;;;;9.27;3.80;;;21.30;61.40;;;;;;5092876;28;20478;-57
2023/09/25 17:55:16;;;;;;;9.55;3.75;;;21.30;61.50;;;;;;5092966;28;20475;-54
2023/09/25 17:57:45;;;;;;;12.20;4.15;;;21.30;61.40;;;;;;5093422;28;20399;-54
2023/09/25 18:00:12;;;;;;;7.85;3.63;;;21.30;61.60;;;;;;5092952;28;20032;-56
2023/09/25 18:02:38;;;;;;;5.93;3.38;;;21.30;61.50;;;;;;5092627;28;20039;-54
2023/09/25 18:05:06;;;;;;;10.10;3.63;;;21.30;61.60;;;;;;5092516;28;20032;-57
2023/09/25 18:07:32;;;;;;;12.63;4.10;;;21.30;62.70;;;;;;5092100;28;20036;-54
2023/09/25 18:09:58;;;;;;;10.82;3.90;;;21.30;62.30;;;;;;5093131;28;20024;-52
2023/09/25 18:12:24;;;;;;;13.43;3.80;;;21.30;62.70;;;;;;5092725;28;20032;-54
2023/09/25 18:14:49;;;;;;;14.30;3.67;;;21.30;63.20;;;;;;5091254;28;20020;-57
2023/09/25 18:17:15;;;;;;;15.65;4.05;;;21.30;63.20;;;;;;5092781;28;20026;-53
2023/09/25 18:19:41;;;;;;;19.73;4.30;;;21.40;63.00;;;;;;5093082;28;20035;-55
2023/09/25 18:22:07;;;;;;;21.98;4.95;;;21.40;63.10;;;;;;5092910;28;20066;-57
2023/09/25 18:24:32;;;;;;;19.08;4.63;;;21.40;64.70;;;;;;5092092;28;20058;-55
2023/09/25 18:26:58;;;;;;;22.42;4.20;;;21.40;63.20;;;;;;5092332;28;20020;-56
2023/09/25 18:29:24;;;;;;;19.60;4.72;;;21.40;62.70;;;;;;5092307;28;20372;-58
2023/09/25 18:31:50;;;;;;;21.52;4.25;;;21.40;63.00;;;;;;5092145;28;20035;-56
2023/09/25 18:34:18;;;;;;;15.95;4.32;;;21.30;62.90;;;;;;5092106;28;20067;-58
2023/09/25 18:36:43;;;;;;;13.82;4.30;;;21.30;63.20;;;;;;5092580;28;20066;-57
2023/09/25 18:39:09;;;;;;;18.23;4.40;;;21.30;63.30;;;;;;5092618;28;20059;-57
2023/09/25 18:41:37;;;;;;;12.40;4.57;;;21.40;62.80;;;;;;5092451;28;20035;-58
2023/09/25 18:44:02;;;;;;;17.60;4.28;;;21.30;63.40;;;;;;5091893;28;20031;-57
2023/09/25 18:46:28;;;;;;;11.73;4.20;;;21.30;63.20;;;;;;5092325;28;20103;-57
2023/09/25 18:48:54;;;;;;;11.57;4.50;;;21.30;63.30;;;;;;5091280;28;20459;-56
2023/09/25 18:51:22;;;;;;;10.73;4.57;;;21.30;63.20;;;;;;5092719;28;20475;-56
2023/09/25 18:53:48;;;;;;;13.45;4.07;;;21.30;63.10;;;;;;5091754;28;20024;-56
2023/09/25 18:56:18;;;;;;;10.57;4.28;;;21.30;63.20;;;;;;5092230;28;20035;-57
2023/09/25 18:58:44;;;;;;;;;;;21.30;63.40;;;;;;5092483;28;20042;-56
2023/09/25 19:01:10;;;;;;;12.63;4.07;;;21.30;63.40;;;;;;5092031;28;20383;-58
2023/09/25 19:03:35;;;;;;;14.15;4.18;;;21.30;63.20;;;;;;5091573;28;20032;-58
2023/09/25 19:06:01;;;;;;;11.18;4.07;;;21.30;63.20;;;;;;5091938;28;20031;-57
2023/09/25 19:08:27;;;;;;;15.85;4.38;;;21.30;62.70;;;;;;5091721;28;20026;-58
2023/09/25 19:10:53;;;;;;;10.95;3.78;;;21.30;62.90;;;;;;5091849;28;20099;-58
2023/09/25 19:13:21;;;;;;;10.82;3.97;;;21.30;62.70;;;;;;5091574;28;20024;-57
2023/09/25 19:15:47;;;;;;;14.75;4.07;;;21.30;63.00;;;;;;5090891;28;20031;-56
2023/09/25 19:18:13;;;;;;;14.65;3.78;;;21.30;62.80;;;;;;5091725;28;20441;-58
2023/09/25 19:20:39;;;;;;;11.55;4.05;;;21.30;62.90;;;;;;5090699;28;20024;-59
2023/09/25 19:23:05;;;;;;;12.20;3.80;;;21.30;63.00;;;;;;5091298;28;20119;-58
2023/09/25 19:25:31;;;;;;;9.63;3.75;;;21.30;62.70;;;;;;5092230;28;20050;-57
2023/09/25 19:27:57;;;;;;;8.68;4.13;;;21.30;62.70;;;;;;5091754;28;20471;-58
2023/09/25 19:30:23;;;;;;;10.52;3.83;;;21.30;62.90;;;;;;5090837;28;20020;-55
2023/09/25 19:32:48;;;;;;;11.50;3.40;;;21.30;62.90;;;;;;5091461;28;20032;-59
2023/09/25 19:35:14;;;;;;;9.40;4.05;;;21.30;63.40;;;;;;5091801;28;20125;-57
2023/09/25 19:37:40;;;;;;;10.65;4.07;;;21.30;62.90;;;;;;5091532;28;20028;-56
2023/09/25 19:40:07;;;;;;;9.32;3.88;;;21.30;62.70;;;;;;5091792;28;20413;-58
2023/09/25 19:42:32;;;;;;;10.85;4.63;;;21.30;62.60;;;;;;5091585;28;20111;-57
2023/09/25 19:44:59;;;;;;;8.90;3.58;;;21.30;62.70;;;;;;5091168;28;20099;-58
2023/09/25 19:47:29;;;;;;;7.35;3.70;;;21.30;62.80;;;;;;5091531;28;20636;-56
2023/09/25 19:49:55;;;;;;;10.93;3.40;;;21.30;62.90;;;;;;5091678;28;20348;-58
2023/09/25 19:52:21;;;;;;;11.40;4.13;;;21.30;62.60;;;;;;5091596;28;20275;-58
2023/09/25 19:54:49;;;;;;;11.13;4.20;;;21.30;62.60;;;;;;5091040;28;20401;-58
2023/09/25 19:57:17;;;;;;;8.95;3.58;;;21.30;62.60;;;;;;5090152;28;20029;-57
2023/09/25 19:59:43;;;;;;;11.25;3.75;;;21.30;62.60;;;;;;5091416;28;20091;-58
2023/09/25 20:02:09;;;;;;;7.47;3.83;;;21.30;62.90;;;;;;5091504;28;20031;-58
2023/09/25 20:04:35;;;;;;;8.82;3.70;;;21.30;62.80;;;;;;5090912;28;20028;-58
2023/09/25 20:07:01;;;;;;;8.68;4.05;;;21.30;62.50;;;;;;5091336;28;20028;-58
2023/09/25 20:09:27;;;;;;;11.50;3.85;;;21.30;62.80;;;;;;5091323;28;20028;-57
2023/09/25 20:11:53;;;;;;;8.93;3.50;;;21.30;62.70;;;;;;5090060;28;20544;-57
2023/09/25 20:14:19;;;;;;;9.95;3.80;;;21.30;62.70;;;;;;5091150;28;20032;-56
2023/09/25 20:16:45;;;;;;;9.75;3.70;;;21.30;62.80;;;;;;5091333;28;20089;-57